createdAt,value
2017-12-23T00:01:39.287Z,96570.59
2017-12-23T00:04:07.828Z,96579.10
2017-12-23T00:06:36.202Z,96578.63
2017-12-23T00:09:04.582Z,96577.03
2017-12-23T00:11:32.976Z,96578.20
2017-12-23T00:14:01.337Z,96574.81
2017-12-23T00:18:58.091Z,96563.26
2017-12-23T00:21:26.496Z,96549.69
2017-12-23T00:23:54.868Z,96546.95
2017-12-23T00:26:23.242Z,96540.80
2017-12-23T00:28:51.676Z,96534.55
2017-12-23T00:31:20.086Z,96527.02
2017-12-23T00:33:48.591Z,96535.92
2017-12-23T00:36:17.710Z,96543.43
2017-12-23T00:38:46.309Z,96535.67
2017-12-23T00:41:14.749Z,96537.83
2017-12-23T00:43:43.540Z,96526.58
2017-12-23T00:46:12.234Z,96526.00
2017-12-23T00:48:41.220Z,96525.91
2017-12-23T00:51:10.406Z,96522.52
2017-12-23T00:53:38.990Z,96529.09
2017-12-23T00:56:07.476Z,96527.94
2017-12-23T00:58:36.151Z,96524.41
2017-12-23T01:01:04.646Z,96514.08
2017-12-23T01:03:33.186Z,96511.86
2017-12-23T01:06:01.868Z,96508.73
2017-12-23T01:08:30.440Z,96504.88
2017-12-23T01:10:59.548Z,96509.47
2017-12-23T01:13:28.393Z,96498.66
2017-12-23T01:15:56.987Z,96500.63
2017-12-23T01:18:26.172Z,96490.91
2017-12-23T01:20:54.927Z,96490.88
2017-12-23T01:23:23.624Z,96491.86
2017-12-23T01:25:52.415Z,96492.52
2017-12-23T01:28:21.355Z,96492.36
2017-12-23T01:30:50.954Z,96489.97
2017-12-23T01:33:19.790Z,96487.16
2017-12-23T01:35:50.432Z,96482.26
2017-12-23T01:38:19.537Z,96482.20
2017-12-23T01:40:49.643Z,96485.80
2017-12-23T01:43:19.853Z,96474.03
2017-12-23T01:45:50.260Z,96475.59
2017-12-23T01:48:30.627Z,96469.14
2017-12-23T01:50:59.356Z,96462.66
2017-12-23T01:53:27.803Z,96455.05
2017-12-23T01:55:57.014Z,96456.30
2017-12-23T01:58:27.467Z,96451.23
2017-12-23T02:00:57.117Z,96457.91
2017-12-23T02:03:26.897Z,96454.23
2017-12-23T02:05:56.427Z,96444.48
2017-12-23T02:08:27.206Z,96452.73
2017-12-23T02:10:57.217Z,96446.86
2017-12-23T02:13:26.768Z,96440.23
2017-12-23T02:15:57.403Z,96433.55
2017-12-23T02:18:27.184Z,96432.45
2017-12-23T02:21:02.717Z,96419.66
2017-12-23T02:23:31.763Z,96421.67
2017-12-23T02:26:01.444Z,96410.25
2017-12-23T02:28:30.186Z,96407.11
2017-12-23T02:31:00.305Z,96401.15
2017-12-23T02:33:29.866Z,96398.49
2017-12-23T02:36:00.424Z,96397.77
2017-12-23T02:38:30.032Z,96398.27
2017-12-23T02:41:00.394Z,96394.74
2017-12-23T02:43:29.468Z,96404.05
2017-12-23T02:45:59.359Z,96396.98
2017-12-23T02:48:27.966Z,96388.05
2017-12-23T02:50:58.135Z,96390.67
2017-12-23T02:53:28.390Z,96381.94
2017-12-23T02:55:57.992Z,96380.06
2017-12-23T02:58:26.877Z,96377.72
2017-12-23T03:00:56.082Z,96385.56
2017-12-23T03:03:25.759Z,96392.29
2017-12-23T03:05:55.083Z,96388.73
2017-12-23T03:08:24.527Z,96390.58
2017-12-23T03:10:54.488Z,96390.67
2017-12-23T03:13:25.275Z,96386.03
2017-12-23T03:15:55.925Z,96388.11
2017-12-23T03:18:25.529Z,96381.05
2017-12-23T03:20:55.435Z,96379.48
2017-12-23T03:23:25.955Z,96379.06
2017-12-23T03:25:55.120Z,96379.45
2017-12-23T03:28:24.913Z,96369.23
2017-12-23T03:30:54.689Z,96362.92
2017-12-23T03:33:24.299Z,96363.59
2017-12-23T03:35:53.949Z,96361.53
2017-12-23T03:38:23.271Z,96366.94
2017-12-23T03:40:53.007Z,96378.00
2017-12-23T03:43:22.488Z,96380.25
2017-12-23T03:45:52.872Z,96373.89
2017-12-23T03:48:23.600Z,96368.02
2017-12-23T03:50:53.316Z,96363.67
2017-12-23T03:53:23.461Z,96361.74
2017-12-23T03:55:53.503Z,96358.08
2017-12-23T03:58:22.938Z,96372.97
2017-12-23T04:00:52.557Z,96369.53
2017-12-23T04:03:22.137Z,96371.80
2017-12-23T04:05:51.778Z,96368.97
2017-12-23T04:08:21.569Z,96372.72
2017-12-23T04:10:51.527Z,96362.64
2017-12-23T04:13:20.685Z,96369.41
2017-12-23T04:15:49.717Z,96370.09
2017-12-23T04:18:18.341Z,96370.95
2017-12-23T04:20:48.853Z,96368.75
2017-12-23T04:23:19.275Z,96361.23
2017-12-23T04:25:50.243Z,96355.41
2017-12-23T04:28:19.397Z,96369.80
2017-12-23T04:30:48.554Z,96369.17
2017-12-23T04:33:18.253Z,96363.02
2017-12-23T04:35:48.230Z,96360.43
2017-12-23T04:38:17.817Z,96370.12
2017-12-23T04:40:47.093Z,96363.60
2017-12-23T04:43:16.650Z,96365.87
2017-12-23T04:45:46.270Z,96361.81
2017-12-23T04:48:15.927Z,96357.31
2017-12-23T04:50:46.790Z,96354.08
2017-12-23T04:53:17.864Z,96350.68
2017-12-23T04:55:48.255Z,96350.02
2017-12-23T04:58:17.881Z,96344.61
2017-12-23T05:00:49.535Z,96340.98
2017-12-23T05:03:20.072Z,96335.41
2017-12-23T05:05:49.838Z,96332.94
2017-12-23T05:08:19.565Z,96334.70
2017-12-23T05:10:48.840Z,96340.14
2017-12-23T05:13:19.896Z,96335.75
2017-12-23T05:15:50.281Z,96337.20
2017-12-23T05:18:19.695Z,96335.49
2017-12-23T05:20:52.019Z,96341.47
2017-12-23T05:23:22.138Z,96336.67
2017-12-23T05:25:51.963Z,96324.16
2017-12-23T05:28:21.487Z,96321.99
2017-12-23T05:30:50.612Z,96325.84
2017-12-23T05:33:20.721Z,96332.73
2017-12-23T05:35:50.191Z,96326.07
2017-12-23T05:38:19.787Z,96328.94
2017-12-23T05:40:49.950Z,96324.63
2017-12-23T05:43:19.850Z,96315.47
2017-12-23T05:45:49.343Z,96315.41
2017-12-23T05:48:18.825Z,96316.99
2017-12-23T05:50:49.434Z,96316.05
2017-12-23T05:53:20.775Z,96313.95
2017-12-23T05:55:50.774Z,96304.19
2017-12-23T05:58:19.727Z,96312.04
2017-12-23T06:00:50.276Z,96308.08
2017-12-23T06:03:19.295Z,96313.49
2017-12-23T06:05:49.644Z,96313.82
2017-12-23T06:08:18.670Z,96306.61
2017-12-23T06:10:49.054Z,96310.52
2017-12-23T06:13:19.200Z,96298.59
2017-12-23T06:15:48.892Z,96304.80
2017-12-23T06:18:18.107Z,96303.70
2017-12-23T06:20:48.276Z,96300.73
2017-12-23T06:23:19.172Z,96304.70
2017-12-23T06:25:50.490Z,96303.03
2017-12-23T06:28:19.670Z,96303.19
2017-12-23T06:30:49.156Z,96309.11
2017-12-23T06:33:19.223Z,96305.31
2017-12-23T06:35:49.840Z,96295.64
2017-12-23T06:38:19.701Z,96305.17
2017-12-23T06:40:49.635Z,96295.85
2017-12-23T06:43:19.813Z,96303.50
2017-12-23T06:45:49.775Z,96295.27
2017-12-23T06:48:19.234Z,96297.50
2017-12-23T06:50:48.538Z,96296.46
2017-12-23T06:53:18.713Z,96285.06
2017-12-23T06:55:49.408Z,96278.48
2017-12-23T06:58:18.870Z,96287.08
2017-12-23T07:00:48.120Z,96275.61
2017-12-23T07:03:19.176Z,96277.17
2017-12-23T07:05:48.037Z,96275.31
2017-12-23T07:08:17.612Z,96278.95
2017-12-23T07:10:46.886Z,96273.71
2017-12-23T07:13:17.197Z,96276.22
2017-12-23T07:15:47.367Z,96288.16
2017-12-23T07:18:17.134Z,96282.31
2017-12-23T07:20:46.508Z,96285.28
2017-12-23T07:23:16.087Z,96288.14
2017-12-23T07:25:45.877Z,96286.73
2017-12-23T07:28:14.984Z,96287.79
2017-12-23T07:30:44.901Z,96294.51
2017-12-23T07:33:14.079Z,96296.45
2017-12-23T07:35:44.168Z,96287.24
2017-12-23T07:38:14.067Z,96289.84
2017-12-23T07:40:42.710Z,96280.67
2017-12-23T07:43:11.268Z,96285.53
2017-12-23T07:45:39.977Z,96280.90
2017-12-23T07:48:09.093Z,96279.52
2017-12-23T07:50:37.484Z,96276.89
2017-12-23T07:53:05.850Z,96284.25
2017-12-23T07:55:34.218Z,96280.81
2017-12-23T07:58:02.587Z,96286.55
2017-12-23T08:00:30.960Z,96297.69
2017-12-23T08:02:59.531Z,96297.79
2017-12-23T08:05:28.337Z,96295.42
2017-12-23T08:07:56.707Z,96314.30
2017-12-23T08:10:25.590Z,96300.73
2017-12-23T08:12:54.679Z,96301.75
2017-12-23T08:15:23.992Z,96308.92
2017-12-23T08:17:52.689Z,96310.23
2017-12-23T08:20:21.508Z,96313.43
2017-12-23T08:22:50.199Z,96303.73
2017-12-23T08:25:19.706Z,96300.26
2017-12-23T08:27:49.182Z,96290.55
2017-12-23T08:30:19.177Z,96287.58
2017-12-23T08:32:47.830Z,96294.44
2017-12-23T08:35:18.872Z,96288.03
2017-12-23T08:37:47.760Z,96280.25
2017-12-23T08:40:17.167Z,96277.71
2017-12-23T08:42:46.140Z,96275.75
2017-12-23T08:45:16.447Z,96279.64
2017-12-23T08:47:46.379Z,96280.28
2017-12-23T08:50:16.322Z,96289.13
2017-12-23T08:52:46.983Z,96280.76
2017-12-23T08:55:17.885Z,96282.88
2017-12-23T08:57:47.614Z,96269.64
2017-12-23T09:00:18.940Z,96283.06
2017-12-23T09:02:48.015Z,96279.11
2017-12-23T09:05:18.057Z,96286.08
2017-12-23T09:07:47.276Z,96279.99
2017-12-23T09:10:18.275Z,96285.34
2017-12-23T09:12:48.586Z,96278.33
2017-12-23T09:15:18.452Z,96282.88
2017-12-23T09:17:47.487Z,96281.18
2017-12-23T09:20:17.016Z,96279.09
2017-12-23T09:22:47.454Z,96285.30
2017-12-23T09:25:16.750Z,96280.34
2017-12-23T09:27:45.770Z,96273.14
2017-12-23T09:30:16.471Z,96283.24
2017-12-23T09:32:45.743Z,96276.33
2017-12-23T09:35:15.796Z,96273.29
2017-12-23T09:37:46.151Z,96271.73
2017-12-23T09:40:16.377Z,96268.39
2017-12-23T09:42:46.041Z,96259.59
2017-12-23T09:45:16.087Z,96254.27
2017-12-23T09:47:45.792Z,96257.22
2017-12-23T09:50:17.435Z,96271.52
2017-12-23T09:52:48.015Z,96268.45
2017-12-23T09:55:18.136Z,96257.59
2017-12-23T09:57:47.708Z,96251.87
2017-12-23T10:00:17.570Z,96252.83
2017-12-23T10:02:47.703Z,96250.13
2017-12-23T10:05:17.215Z,96251.78
2017-12-23T10:07:46.141Z,96248.43
2017-12-23T10:10:15.155Z,96248.89
2017-12-23T10:12:44.232Z,96263.70
2017-12-23T10:15:15.272Z,96247.15
2017-12-23T10:17:45.609Z,96239.52
2017-12-23T10:20:15.208Z,96239.03
2017-12-23T10:22:46.252Z,96239.65
2017-12-23T10:25:16.358Z,96217.89
2017-12-23T10:27:46.204Z,96225.17
2017-12-23T10:30:16.911Z,96220.00
2017-12-23T10:32:47.769Z,96215.66
2017-12-23T10:35:17.958Z,96225.64
2017-12-23T10:37:47.239Z,96217.16
2017-12-23T10:40:16.414Z,96229.48
2017-12-23T10:42:46.341Z,96225.99
2017-12-23T10:45:17.002Z,96219.78
2017-12-23T10:47:47.268Z,96215.55
2017-12-23T10:50:16.544Z,96217.52
2017-12-23T10:52:51.018Z,96217.67
2017-12-23T10:55:20.856Z,96219.56
2017-12-23T10:57:49.786Z,96217.68
2017-12-23T11:00:18.577Z,96229.27
2017-12-23T11:02:48.145Z,96225.19
2017-12-23T11:05:17.756Z,96231.39
2017-12-23T11:07:47.256Z,96231.25
2017-12-23T11:10:16.831Z,96228.48
2017-12-23T11:12:46.537Z,96231.54
2017-12-23T11:15:17.364Z,96223.34
2017-12-23T11:17:46.083Z,96217.44
2017-12-23T11:20:16.058Z,96214.88
2017-12-23T11:22:47.023Z,96209.08
2017-12-23T11:25:16.453Z,96207.00
2017-12-23T11:27:46.457Z,96199.18
2017-12-23T11:30:17.556Z,96209.95
2017-12-23T11:32:47.198Z,96205.25
2017-12-23T11:35:16.421Z,96208.67
2017-12-23T11:37:45.566Z,96202.99
2017-12-23T11:40:14.943Z,96191.95
2017-12-23T11:42:45.847Z,96199.70
2017-12-23T11:45:16.783Z,96193.70
2017-12-23T11:47:46.251Z,96185.89
2017-12-23T11:50:16.166Z,96187.45
2017-12-23T11:52:45.719Z,96181.56
2017-12-23T11:55:15.936Z,96182.96
2017-12-23T11:57:46.582Z,96175.28
2017-12-23T12:00:17.004Z,96179.03
2017-12-23T12:02:46.774Z,96178.59
2017-12-23T12:05:16.385Z,96177.28
2017-12-23T12:07:47.625Z,96182.70
2017-12-23T12:10:16.993Z,96167.78
2017-12-23T12:12:45.980Z,96167.34
2017-12-23T12:15:15.992Z,96169.34
2017-12-23T12:17:45.765Z,96166.91
2017-12-23T12:20:15.466Z,96168.51
2017-12-23T12:22:45.309Z,96167.39
2017-12-23T12:25:14.416Z,96156.31
2017-12-23T12:27:44.586Z,96159.88
2017-12-23T12:30:14.041Z,96162.78
2017-12-23T12:32:43.438Z,96154.28
2017-12-23T12:35:12.203Z,96155.37
2017-12-23T12:37:40.932Z,96146.44
2017-12-23T12:40:09.397Z,96147.38
2017-12-23T12:42:37.754Z,96153.95
2017-12-23T12:45:06.104Z,96153.19
2017-12-23T12:47:34.520Z,96149.80
2017-12-23T12:50:02.907Z,96146.71
2017-12-23T12:52:31.272Z,96146.35
2017-12-23T12:54:59.944Z,96137.89
2017-12-23T12:57:29.068Z,96136.74
2017-12-23T12:59:58.444Z,96128.84
2017-12-23T13:02:27.068Z,96125.81
2017-12-23T13:04:55.652Z,96127.17
2017-12-23T13:07:24.614Z,96120.54
2017-12-23T13:09:54.018Z,96119.16
2017-12-23T13:12:23.033Z,96109.22
2017-12-23T13:14:51.723Z,96115.02
2017-12-23T13:17:21.630Z,96114.00
2017-12-23T13:19:50.705Z,96106.98
2017-12-23T13:22:19.683Z,96106.80
2017-12-23T13:24:50.027Z,96106.98
2017-12-23T17:25:01.344Z,96091.25
2017-12-23T17:27:29.710Z,96093.33
2017-12-23T17:30:09.782Z,96095.96
2017-12-23T17:32:38.162Z,96102.19
2017-12-23T17:35:06.573Z,96095.11
2017-12-23T17:37:34.982Z,96086.35
2017-12-23T17:40:03.364Z,96083.37
2017-12-23T17:42:31.748Z,96088.66
2017-12-23T17:45:00.100Z,96094.93
2017-12-23T17:47:28.500Z,96094.03
2017-12-23T17:49:56.840Z,96086.36
2017-12-23T17:52:25.209Z,96082.61
2017-12-23T17:54:53.594Z,96073.89
2017-12-23T17:57:22.082Z,96079.53
2017-12-23T17:59:50.524Z,96073.81
2017-12-23T18:02:18.892Z,96061.74
2017-12-23T18:04:47.324Z,96074.33
2017-12-23T18:07:15.750Z,96068.34
2017-12-23T18:09:44.074Z,96058.16
2017-12-23T18:12:12.495Z,96064.80
2017-12-23T18:14:40.835Z,96072.31
2017-12-23T18:17:09.313Z,96060.20
2017-12-23T18:19:37.743Z,96070.55
2017-12-23T18:22:07.952Z,96071.97
2017-12-23T18:24:36.450Z,96065.20
2017-12-23T18:27:04.840Z,96065.71
2017-12-23T18:29:33.242Z,96071.82
2017-12-23T18:32:01.635Z,96065.53
2017-12-23T18:34:30.016Z,96060.45
2017-12-23T18:36:58.375Z,96067.66
2017-12-23T18:39:26.778Z,96067.67
2017-12-23T18:41:55.220Z,96070.41
2017-12-23T18:44:23.738Z,96062.27
2017-12-23T18:46:52.245Z,96067.04
2017-12-23T18:49:20.652Z,96068.66
2017-12-23T18:51:49.168Z,96067.83
2017-12-23T18:54:17.556Z,96065.37
2017-12-23T18:56:45.925Z,96061.73
2017-12-23T18:59:14.334Z,96063.16
2017-12-23T19:01:42.806Z,96069.64
2017-12-23T19:04:11.189Z,96060.60
2017-12-23T19:06:39.543Z,96062.55
2017-12-23T19:09:08.888Z,96060.55
2017-12-23T19:11:37.270Z,96051.85
2017-12-23T19:14:05.710Z,96045.39
2017-12-23T19:16:45.772Z,96042.52
2017-12-23T19:19:14.165Z,96047.16
2017-12-23T19:21:42.660Z,96042.48
2017-12-23T19:24:11.048Z,96032.30
2017-12-23T19:26:40.088Z,96027.23
2017-12-23T19:29:08.605Z,96036.34
2017-12-23T19:31:37.171Z,96025.56
2017-12-23T19:34:05.619Z,96021.34
2017-12-23T19:36:34.064Z,96028.45
2017-12-23T19:39:02.772Z,96035.52
2017-12-23T19:41:31.201Z,96033.12
2017-12-23T19:43:59.814Z,96036.13
2017-12-23T19:46:28.186Z,96029.97
2017-12-23T19:48:56.583Z,96040.70
2017-12-23T19:51:25.090Z,96048.34
2017-12-23T19:53:53.445Z,96051.12
2017-12-23T19:56:21.884Z,96034.36
2017-12-23T19:58:50.258Z,96031.60
2017-12-23T20:01:18.711Z,96040.65
2017-12-23T20:03:47.300Z,96040.44
2017-12-23T20:06:15.677Z,96031.24
2017-12-23T20:08:44.262Z,96026.46
2017-12-23T20:11:12.797Z,96032.31
2017-12-23T20:13:41.367Z,96035.56
2017-12-23T20:16:09.813Z,96037.66
2017-12-23T20:18:38.313Z,96046.65
2017-12-23T20:21:06.821Z,96046.09
2017-12-23T20:23:35.258Z,96046.17
2017-12-23T20:26:03.696Z,96036.42
2017-12-23T20:28:32.083Z,96032.73
2017-12-23T20:31:00.644Z,96051.16
2017-12-23T20:33:29.062Z,96039.39
2017-12-23T20:35:57.474Z,96038.78
2017-12-23T20:38:25.914Z,96033.94
2017-12-23T20:40:54.324Z,96036.83
2017-12-23T20:43:22.718Z,96033.42
2017-12-23T20:45:51.219Z,96032.34
2017-12-23T20:48:19.663Z,96034.05
2017-12-23T20:50:48.104Z,96029.55
2017-12-23T20:53:16.469Z,96013.31
2017-12-23T20:55:44.894Z,96022.20
2017-12-23T20:58:13.275Z,96014.98
2017-12-23T21:00:41.620Z,96015.20
2017-12-23T21:03:10.089Z,96009.50
2017-12-23T21:05:38.605Z,96010.25
2017-12-23T21:08:07.016Z,96007.78
2017-12-23T21:10:35.415Z,96006.98
2017-12-23T21:13:03.796Z,96005.25
2017-12-23T21:15:32.169Z,95999.87
2017-12-23T21:18:00.576Z,96000.39
2017-12-23T21:20:28.977Z,95987.35
2017-12-23T21:22:57.338Z,95992.47
2017-12-23T21:25:25.861Z,95992.75
2017-12-23T21:27:54.284Z,95985.53
2017-12-23T21:30:22.626Z,95983.59
2017-12-23T21:32:51.061Z,95984.94
2017-12-23T21:35:19.437Z,95978.66
2017-12-23T21:37:47.858Z,95988.52
2017-12-23T21:40:16.285Z,95983.94
2017-12-23T21:42:44.646Z,95984.48
2017-12-23T21:45:13.097Z,95985.00
2017-12-23T21:47:41.520Z,95990.80
2017-12-23T21:50:09.903Z,95993.77
2017-12-23T21:52:38.301Z,95987.07
2017-12-23T21:55:06.701Z,95992.78
2017-12-23T21:57:35.158Z,95984.66
2017-12-23T22:00:03.546Z,95996.22
2017-12-23T22:02:32.012Z,95989.73
2017-12-23T22:05:00.389Z,95994.34
2017-12-23T22:07:28.769Z,95990.80
2017-12-23T22:09:57.177Z,95996.72
2017-12-23T22:12:25.606Z,95978.45
2017-12-23T22:14:54.026Z,95977.80
2017-12-23T22:17:22.429Z,95980.92
2017-12-23T22:19:50.785Z,95972.30
2017-12-23T22:22:19.165Z,95970.73
2017-12-23T22:24:47.621Z,95971.48
2017-12-23T22:27:15.962Z,95962.43
2017-12-23T22:29:44.342Z,95967.58
2017-12-23T22:32:12.754Z,95960.75
2017-12-23T22:34:41.810Z,95961.64
2017-12-23T22:37:10.260Z,95967.55
2017-12-23T22:39:38.716Z,95962.81
2017-12-23T22:42:07.232Z,95953.22
2017-12-23T22:44:35.608Z,95951.84
2017-12-23T22:47:04.010Z,95963.66
2017-12-23T22:49:32.632Z,95961.70
2017-12-23T22:52:01.000Z,95948.85
2017-12-23T22:54:29.391Z,95948.58
2017-12-23T22:56:57.759Z,95945.48
2017-12-23T22:59:26.149Z,95946.33
2017-12-23T23:01:54.530Z,95943.61
2017-12-23T23:04:22.947Z,95934.34
2017-12-23T23:06:51.358Z,95936.22
2017-12-23T23:09:19.764Z,95928.10
2017-12-23T23:11:48.125Z,95929.14
2017-12-23T23:14:16.498Z,95924.59
2017-12-23T23:16:44.892Z,95918.86
2017-12-23T23:19:13.249Z,95919.52
2017-12-23T23:21:41.667Z,95925.95
2017-12-23T23:24:10.032Z,95918.93
2017-12-23T23:26:38.396Z,95920.52
2017-12-23T23:29:06.793Z,95917.97
2017-12-23T23:31:35.179Z,95914.73
2017-12-23T23:34:03.596Z,95914.00
2017-12-23T23:36:32.004Z,95910.91
2017-12-23T23:39:00.434Z,95908.00
2017-12-23T23:41:28.870Z,95903.09
2017-12-23T23:43:57.286Z,95899.53
2017-12-23T23:46:25.674Z,95900.27
2017-12-23T23:48:54.084Z,95898.98
2017-12-23T23:51:22.474Z,95891.00
2017-12-23T23:53:50.938Z,95885.41
2017-12-23T23:56:19.299Z,95890.69
2017-12-23T23:58:47.666Z,95891.64
